sensor_id;sensor_type;location;lat;lon;timestamp;pressure;altitude;pressure_sealevel;temperature;humidity
10464;BME280;5279;42.048;24.638;2022-09-03T00:00:04;97280.81;;;18.77;100.00
10464;BME280;5279;42.048;24.638;2022-09-03T00:02:37;97287.84;;;18.78;100.00
10464;BME280;5279;42.048;24.638;2022-09-03T00:05:08;97286.31;;;18.55;100.00
10464;BME280;5279;42.048;24.638;2022-09-03T00:07:42;97286.75;;;18.59;100.00
10464;BME280;5279;42.048;24.638;2022-09-03T00:10:24;97288.13;;;18.42;100.00
10464;BME280;5279;42.048;24.638;2022-09-03T00:12:57;97290.66;;;18.50;100.00
10464;BME280;5279;42.048;24.638;2022-09-03T00:15:26;97289.56;;;18.44;100.00
10464;BME280;5279;42.048;24.638;2022-09-03T00:17:57;97282.31;;;18.38;100.00
10464;BME280;5279;42.048;24.638;2022-09-03T00:20:29;97291.47;;;18.50;100.00
10464;BME280;5279;42.048;24.638;2022-09-03T00:22:59;97301.41;;;18.57;100.00
10464;BME280;5279;42.048;24.638;2022-09-03T00:25:34;97294.41;;;18.62;100.00
10464;BME280;5279;42.048;24.638;2022-09-03T00:28:07;97309.25;;;18.65;100.00
10464;BME280;5279;42.048;24.638;2022-09-03T00:30:38;97290.69;;;18.57;100.00
10464;BME280;5279;42.048;24.638;2022-09-03T00:33:10;97297.66;;;18.58;100.00
10464;BME280;5279;42.048;24.638;2022-09-03T00:35:45;97297.28;;;18.61;100.00
10464;BME280;5279;42.048;24.638;2022-09-03T00:38:14;97289.81;;;18.49;100.00
10464;BME280;5279;42.048;24.638;2022-09-03T00:40:52;97290.66;;;18.50;100.00
10464;BME280;5279;42.048;24.638;2022-09-03T00:43:27;97294.94;;;18.44;100.00
10464;BME280;5279;42.048;24.638;2022-09-03T00:46:03;97282.53;;;18.43;100.00
10464;BME280;5279;42.048;24.638;2022-09-03T00:48:43;97292.63;;;18.35;100.00
10464;BME280;5279;42.048;24.638;2022-09-03T00:51:20;97295.53;;;18.40;100.00
10464;BME280;5279;42.048;24.638;2022-09-03T00:53:58;97291.78;;;18.34;100.00
10464;BME280;5279;42.048;24.638;2022-09-03T00:56:37;97288.50;;;18.32;100.00
10464;BME280;5279;42.048;24.638;2022-09-03T00:59:13;97291.41;;;18.44;100.00
10464;BME280;5279;42.048;24.638;2022-09-03T01:01:49;97299.03;;;18.40;100.00
10464;BME280;5279;42.048;24.638;2022-09-03T01:04:34;97297.22;;;18.47;100.00
10464;BME280;5279;42.048;24.638;2022-09-03T01:07:13;97295.94;;;18.37;100.00
10464;BME280;5279;42.048;24.638;2022-09-03T01:09:51;97304.56;;;18.26;100.00
10464;BME280;5279;42.048;24.638;2022-09-03T01:12:33;97293.19;;;18.17;100.00
10464;BME280;5279;42.048;24.638;2022-09-03T01:15:07;97286.81;;;18.25;100.00
10464;BME280;5279;42.048;24.638;2022-09-03T01:17:45;97294.25;;;18.29;100.00
10464;BME280;5279;42.048;24.638;2022-09-03T01:20:26;97296.09;;;18.22;100.00
10464;BME280;5279;42.048;24.638;2022-09-03T01:26:12;97296.66;;;18.11;100.00
10464;BME280;5279;42.048;24.638;2022-09-03T01:28:48;97290.03;;;18.07;100.00
10464;BME280;5279;42.048;24.638;2022-09-03T01:31:27;97286.66;;;17.92;100.00
10464;BME280;5279;42.048;24.638;2022-09-03T01:34:01;97281.25;;;17.85;100.00
10464;BME280;5279;42.048;24.638;2022-09-03T01:36:35;97301.06;;;17.91;100.00
10464;BME280;5279;42.048;24.638;2022-09-03T01:39:05;97311.41;;;17.94;100.00
10464;BME280;5279;42.048;24.638;2022-09-03T01:41:46;97298.66;;;17.96;100.00
10464;BME280;5279;42.048;24.638;2022-09-03T01:44:47;97292.09;;;18.05;100.00
10464;BME280;5279;42.048;24.638;2022-09-03T01:47:25;97296.22;;;18.08;100.00
10464;BME280;5279;42.048;24.638;2022-09-03T01:50:02;97287.13;;;18.02;100.00
10464;BME280;5279;42.048;24.638;2022-09-03T01:52:38;97286.88;;;17.97;100.00
10464;BME280;5279;42.048;24.638;2022-09-03T01:55:17;97274.22;;;17.78;100.00
10464;BME280;5279;42.048;24.638;2022-09-03T01:57:49;97272.16;;;17.80;100.00
10464;BME280;5279;42.048;24.638;2022-09-03T02:00:22;97273.72;;;17.68;100.00
10464;BME280;5279;42.048;24.638;2022-09-03T02:02:51;97271.69;;;17.70;100.00
10464;BME280;5279;42.048;24.638;2022-09-03T02:05:20;97272.06;;;17.67;100.00
10464;BME280;5279;42.048;24.638;2022-09-03T02:07:56;97273.06;;;17.59;100.00
10464;BME280;5279;42.048;24.638;2022-09-03T02:10:27;97285.84;;;17.64;100.00
10464;BME280;5279;42.048;24.638;2022-09-03T02:12:59;97288.09;;;17.60;100.00
10464;BME280;5279;42.048;24.638;2022-09-03T02:15:28;97281.09;;;17.59;100.00
10464;BME280;5279;42.048;24.638;2022-09-03T02:18:01;97295.13;;;17.61;100.00
10464;BME280;5279;42.048;24.638;2022-09-03T02:20:29;97296.75;;;17.56;100.00
10464;BME280;5279;42.048;24.638;2022-09-03T02:22:57;97305.50;;;17.71;100.00
10464;BME280;5279;42.048;24.638;2022-09-03T02:25:29;97303.44;;;17.73;100.00
10464;BME280;5279;42.048;24.638;2022-09-03T02:27:59;97302.91;;;17.84;100.00
10464;BME280;5279;42.048;24.638;2022-09-03T02:30:26;97303.75;;;17.91;100.00
10464;BME280;5279;42.048;24.638;2022-09-03T02:32:54;97307.69;;;17.95;100.00
10464;BME280;5279;42.048;24.638;2022-09-03T02:35:21;97312.66;;;17.98;100.00
10464;BME280;5279;42.048;24.638;2022-09-03T02:38:10;97313.94;;;18.02;100.00
10464;BME280;5279;42.048;24.638;2022-09-03T02:40:37;97319.31;;;18.02;100.00
10464;BME280;5279;42.048;24.638;2022-09-03T02:43:08;97311.41;;;17.94;100.00
10464;BME280;5279;42.048;24.638;2022-09-03T02:45:41;97315.53;;;17.90;100.00
10464;BME280;5279;42.048;24.638;2022-09-03T02:48:11;97309.91;;;17.85;100.00
10464;BME280;5279;42.048;24.638;2022-09-03T02:50:40;97311.09;;;17.76;100.00
10464;BME280;5279;42.048;24.638;2022-09-03T02:53:07;97315.47;;;17.83;100.00
10464;BME280;5279;42.048;24.638;2022-09-03T02:55:34;97326.88;;;17.92;100.00
10464;BME280;5279;42.048;24.638;2022-09-03T02:58:01;97323.31;;;17.85;100.00
10464;BME280;5279;42.048;24.638;2022-09-03T03:00:30;97313.47;;;17.92;100.00
10464;BME280;5279;42.048;24.638;2022-09-03T03:02:57;97308.00;;;17.79;100.00
10464;BME280;5279;42.048;24.638;2022-09-03T03:05:29;97321.91;;;17.89;100.00
10464;BME280;5279;42.048;24.638;2022-09-03T03:08:02;97323.97;;;17.87;100.00
10464;BME280;5279;42.048;24.638;2022-09-03T03:10:28;97315.53;;;17.90;100.00
10464;BME280;5279;42.048;24.638;2022-09-03T03:12:55;97318.81;;;17.92;100.00
10464;BME280;5279;42.048;24.638;2022-09-03T03:15:22;97319.22;;;17.89;100.00
10464;BME280;5279;42.048;24.638;2022-09-03T03:17:49;97299.84;;;17.87;100.00
10464;BME280;5279;42.048;24.638;2022-09-03T03:20:16;97310.44;;;18.01;100.00
10464;BME280;5279;42.048;24.638;2022-09-03T03:22:44;97313.94;;;18.02;100.00
10464;BME280;5279;42.048;24.638;2022-09-03T03:25:11;97312.91;;;18.03;100.00
10464;BME280;5279;42.048;24.638;2022-09-03T03:27:38;97322.63;;;18.11;100.00
10464;BME280;5279;42.048;24.638;2022-09-03T03:30:07;97324.69;;;18.09;100.00
10464;BME280;5279;42.048;24.638;2022-09-03T03:32:35;97314.34;;;17.99;100.00
10464;BME280;5279;42.048;24.638;2022-09-03T03:35:03;97316.44;;;18.10;100.00
10464;BME280;5279;42.048;24.638;2022-09-03T03:37:30;97307.97;;;18.07;100.00
10464;BME280;5279;42.048;24.638;2022-09-03T03:39:58;97309.41;;;18.09;100.00
10464;BME280;5279;42.048;24.638;2022-09-03T03:42:25;97315.38;;;18.05;100.00
10464;BME280;5279;42.048;24.638;2022-09-03T03:44:52;97319.31;;;18.02;100.00
10464;BME280;5279;42.048;24.638;2022-09-03T03:47:19;97320.50;;;17.93;100.00
10464;BME280;5279;42.048;24.638;2022-09-03T03:49:46;97318.34;;;17.82;100.00
10464;BME280;5279;42.048;24.638;2022-09-03T03:52:13;97312.75;;;17.77;100.00
10464;BME280;5279;42.048;24.638;2022-09-03T03:54:39;97328.00;;;17.76;100.00
10464;BME280;5279;42.048;24.638;2022-09-03T03:57:08;97325.53;;;17.81;100.00
10464;BME280;5279;42.048;24.638;2022-09-03T03:59:34;97317.94;;;17.85;100.00
10464;BME280;5279;42.048;24.638;2022-09-03T04:02:01;97311.34;;;17.87;100.00
10464;BME280;5279;42.048;24.638;2022-09-03T04:04:28;97312.19;;;17.88;100.00
10464;BME280;5279;42.048;24.638;2022-09-03T04:06:55;97315.75;;;17.95;100.00
10464;BME280;5279;42.048;24.638;2022-09-03T04:09:22;97308.97;;;17.99;100.00
10464;BME280;5279;42.048;24.638;2022-09-03T04:11:49;97323.47;;;18.11;100.00
10464;BME280;5279;42.048;24.638;2022-09-03T04:14:17;97324.31;;;18.18;100.00
10464;BME280;5279;42.048;24.638;2022-09-03T04:16:44;97319.59;;;18.20;100.00
10464;BME280;5279;42.048;24.638;2022-09-03T04:19:11;97323.13;;;18.27;100.00
10464;BME280;5279;42.048;24.638;2022-09-03T04:21:38;97324.41;;;18.38;100.00
10464;BME280;5279;42.048;24.638;2022-09-03T04:24:06;97321.56;;;18.46;100.00
10464;BME280;5279;42.048;24.638;2022-09-03T04:26:33;97328.66;;;18.53;100.00
10464;BME280;5279;42.048;24.638;2022-09-03T04:29:02;97328.66;;;18.60;100.00
10464;BME280;5279;42.048;24.638;2022-09-03T04:31:31;97324.75;;;18.63;100.00
10464;BME280;5279;42.048;24.638;2022-09-03T04:33:58;97327.03;;;18.79;100.00
10464;BME280;5279;42.048;24.638;2022-09-03T04:36:27;97335.34;;;18.84;100.00
10464;BME280;5279;42.048;24.638;2022-09-03T04:38:56;97343.81;;;18.87;100.00
10464;BME280;5279;42.048;24.638;2022-09-03T04:41:25;97346.31;;;19.02;100.00
10464;BME280;5279;42.048;24.638;2022-09-03T04:43:53;97338.91;;;19.17;100.00
10464;BME280;5279;42.048;24.638;2022-09-03T04:46:22;97345.34;;;19.29;100.00
10464;BME280;5279;42.048;24.638;2022-09-03T04:48:53;97339.19;;;19.48;100.00
10464;BME280;5279;42.048;24.638;2022-09-03T04:51:24;97348.88;;;19.62;100.00
10464;BME280;5279;42.048;24.638;2022-09-03T04:53:54;97360.25;;;19.71;100.00
10464;BME280;5279;42.048;24.638;2022-09-03T04:56:22;97355.69;;;19.78;100.00
10464;BME280;5279;42.048;24.638;2022-09-03T04:58:53;97351.56;;;19.76;100.00
10464;BME280;5279;42.048;24.638;2022-09-03T05:01:22;97361.09;;;19.78;100.00
10464;BME280;5279;42.048;24.638;2022-09-03T05:03:51;97355.69;;;19.85;100.00
10464;BME280;5279;42.048;24.638;2022-09-03T05:06:18;97369.72;;;20.06;100.00
10464;BME280;5279;42.048;24.638;2022-09-03T05:08:47;97364.53;;;20.11;100.00
10464;BME280;5279;42.048;24.638;2022-09-03T05:11:14;97374.47;;;20.11;100.00
10464;BME280;5279;42.048;24.638;2022-09-03T05:13:41;97364.72;;;20.23;100.00
10464;BME280;5279;42.048;24.638;2022-09-03T05:16:09;97363.06;;;20.22;100.00
10464;BME280;5279;42.048;24.638;2022-09-03T05:18:37;97352.72;;;20.26;100.00
10464;BME280;5279;42.048;24.638;2022-09-03T05:21:08;97363.66;;;20.37;100.00
10464;BME280;5279;42.048;24.638;2022-09-03T05:23:36;97366.75;;;20.41;100.00
10464;BME280;5279;42.048;24.638;2022-09-03T05:26:05;97378.50;;;20.59;100.00
10464;BME280;5279;42.048;24.638;2022-09-03T05:28:34;97381.16;;;20.73;100.00
10464;BME280;5279;42.048;24.638;2022-09-03T05:31:03;97389.81;;;20.81;100.00
10464;BME280;5279;42.048;24.638;2022-09-03T05:33:32;97379.47;;;20.78;100.00
10464;BME280;5279;42.048;24.638;2022-09-03T05:36:00;97368.66;;;20.85;100.00
10464;BME280;5279;42.048;24.638;2022-09-03T05:38:29;97389.34;;;20.91;100.00
10464;BME280;5279;42.048;24.638;2022-09-03T05:40:57;97380.59;;;21.02;100.00
10464;BME280;5279;42.048;24.638;2022-09-03T05:43:24;97374.34;;;21.08;100.00
10464;BME280;5279;42.048;24.638;2022-09-03T05:45:51;97381.81;;;21.12;100.00
10464;BME280;5279;42.048;24.638;2022-09-03T05:48:22;97388.53;;;21.28;100.00
10464;BME280;5279;42.048;24.638;2022-09-03T05:50:49;97399.25;;;21.41;100.00
10464;BME280;5279;42.048;24.638;2022-09-03T05:53:16;97394.56;;;21.30;100.00
10464;BME280;5279;42.048;24.638;2022-09-03T05:55:54;97405.53;;;21.29;100.00
10464;BME280;5279;42.048;24.638;2022-09-03T05:58:21;97398.34;;;21.16;100.00
10464;BME280;5279;42.048;24.638;2022-09-03T06:00:47;97394.34;;;21.25;100.00
10464;BME280;5279;42.048;24.638;2022-09-03T06:03:14;97387.94;;;21.26;100.00
10464;BME280;5279;42.048;24.638;2022-09-03T06:05:48;97393.91;;;21.59;100.00
10464;BME280;5279;42.048;24.638;2022-09-03T06:08:15;97387.22;;;21.68;100.00
10464;BME280;5279;42.048;24.638;2022-09-03T06:10:44;97394.38;;;21.81;100.00
10464;BME280;5279;42.048;24.638;2022-09-03T06:13:10;97402.19;;;22.14;100.00
10464;BME280;5279;42.048;24.638;2022-09-03T06:15:37;97377.09;;;22.31;100.00
10464;BME280;5279;42.048;24.638;2022-09-03T06:18:05;97401.59;;;22.73;100.00
10464;BME280;5279;42.048;24.638;2022-09-03T06:20:32;97400.97;;;22.89;100.00
10464;BME280;5279;42.048;24.638;2022-09-03T06:22:59;97400.63;;;23.15;100.00
10464;BME280;5279;42.048;24.638;2022-09-03T06:25:26;97409.72;;;23.21;100.00
10464;BME280;5279;42.048;24.638;2022-09-03T06:27:54;97399.34;;;23.18;100.00
10464;BME280;5279;42.048;24.638;2022-09-03T06:30:21;97404.13;;;23.34;100.00
10464;BME280;5279;42.048;24.638;2022-09-03T06:32:49;97411.09;;;23.42;100.00
10464;BME280;5279;42.048;24.638;2022-09-03T06:35:16;97399.00;;;23.44;100.00
10464;BME280;5279;42.048;24.638;2022-09-03T06:37:43;97400.94;;;23.55;100.00
10464;BME280;5279;42.048;24.638;2022-09-03T06:40:10;97407.72;;;23.46;100.00
10464;BME280;5279;42.048;24.638;2022-09-03T06:42:38;97423.81;;;23.23;100.00
10464;BME280;5279;42.048;24.638;2022-09-03T06:45:09;97411.91;;;23.12;100.00
10464;BME280;5279;42.048;24.638;2022-09-03T06:47:36;97420.88;;;22.95;100.00
10464;BME280;5279;42.048;24.638;2022-09-03T06:50:04;97413.84;;;22.75;100.00
10464;BME280;5279;42.048;24.638;2022-09-03T06:52:31;97394.53;;;22.72;100.00
10464;BME280;5279;42.048;24.638;2022-09-03T06:54:58;97403.75;;;23.01;100.00
10464;BME280;5279;42.048;24.638;2022-09-03T06:57:25;97409.88;;;23.08;100.00
10464;BME280;5279;42.048;24.638;2022-09-03T06:59:52;97401.72;;;23.26;100.00
10464;BME280;5279;42.048;24.638;2022-09-03T07:02:21;97394.19;;;23.46;100.00
10464;BME280;5279;42.048;24.638;2022-09-03T07:04:48;97384.69;;;23.55;100.00
10464;BME280;5279;42.048;24.638;2022-09-03T07:07:15;97406.63;;;23.88;100.00
10464;BME280;5279;42.048;24.638;2022-09-03T07:09:43;97405.03;;;24.11;100.00
10464;BME280;5279;42.048;24.638;2022-09-03T07:12:09;97409.75;;;24.27;100.00
10464;BME280;5279;42.048;24.638;2022-09-03T07:14:37;97411.81;;;24.60;100.00
10464;BME280;5279;42.048;24.638;2022-09-03T07:17:04;97415.81;;;24.80;100.00
10464;BME280;5279;42.048;24.638;2022-09-03T07:19:32;97415.69;;;24.87;100.00
10464;BME280;5279;42.048;24.638;2022-09-03T07:21:59;97417.91;;;25.02;95.64
10464;BME280;5279;42.048;24.638;2022-09-03T07:24:26;97424.22;;;25.19;91.64
10464;BME280;5279;42.048;24.638;2022-09-03T07:26:53;97426.09;;;25.46;100.00
10464;BME280;5279;42.048;24.638;2022-09-03T07:29:22;97437.34;;;25.67;88.52
10464;BME280;5279;42.048;24.638;2022-09-03T07:31:50;97436.03;;;25.69;93.83
10464;BME280;5279;42.048;24.638;2022-09-03T07:34:17;97427.09;;;25.85;86.66
10464;BME280;5279;42.048;24.638;2022-09-03T07:36:46;97434.25;;;25.91;84.07
10464;BME280;5279;42.048;24.638;2022-09-03T07:39:15;97444.69;;;25.99;82.62
10464;BME280;5279;42.048;24.638;2022-09-03T07:41:43;97437.53;;;25.77;80.61
10464;BME280;5279;42.048;24.638;2022-09-03T07:44:10;97437.38;;;25.83;89.23
10464;BME280;5279;42.048;24.638;2022-09-03T07:46:37;97443.94;;;25.71;90.36
10464;BME280;5279;42.048;24.638;2022-09-03T07:49:05;97432.00;;;25.55;89.52
10464;BME280;5279;42.048;24.638;2022-09-03T07:51:33;97447.13;;;25.39;89.10
10464;BME280;5279;42.048;24.638;2022-09-03T07:54:03;97426.94;;;25.47;93.25
10464;BME280;5279;42.048;24.638;2022-09-03T07:56:31;97456.34;;;25.50;85.68
10464;BME280;5279;42.048;24.638;2022-09-03T07:59:00;97445.16;;;25.63;92.75
10464;BME280;5279;42.048;24.638;2022-09-03T08:01:28;97443.97;;;25.87;99.36
10464;BME280;5279;42.048;24.638;2022-09-03T08:03:56;97437.22;;;26.06;90.99
10464;BME280;5279;42.048;24.638;2022-09-03T08:06:24;97447.41;;;25.99;83.89
10464;BME280;5279;42.048;24.638;2022-09-03T08:08:54;97443.00;;;26.27;90.14
10464;BME280;5279;42.048;24.638;2022-09-03T08:11:25;97445.13;;;26.58;84.05
10464;BME280;5279;42.048;24.638;2022-09-03T08:13:54;97438.69;;;26.64;79.85
10464;BME280;5279;42.048;24.638;2022-09-03T08:16:26;97441.22;;;26.32;78.34
10464;BME280;5279;42.048;24.638;2022-09-03T08:18:53;97435.50;;;26.00;78.85
10464;BME280;5279;42.048;24.638;2022-09-03T08:21:21;97442.31;;;25.30;86.08
10464;BME280;5279;42.048;24.638;2022-09-03T08:23:49;97435.75;;;25.26;87.45
10464;BME280;5279;42.048;24.638;2022-09-03T08:26:18;97435.28;;;25.29;83.71
10464;BME280;5279;42.048;24.638;2022-09-03T08:28:47;97432.06;;;25.60;91.00
10464;BME280;5279;42.048;24.638;2022-09-03T08:31:16;97441.38;;;25.64;86.95
10464;BME280;5279;42.048;24.638;2022-09-03T08:33:45;97446.44;;;26.05;87.54
10464;BME280;5279;42.048;24.638;2022-09-03T08:36:13;97440.66;;;25.85;79.02
10464;BME280;5279;42.048;24.638;2022-09-03T08:38:42;97443.19;;;25.75;81.26
10464;BME280;5279;42.048;24.638;2022-09-03T08:41:12;97439.75;;;25.96;84.09
10464;BME280;5279;42.048;24.638;2022-09-03T08:44:15;97444.09;;;26.26;76.75
10464;BME280;5279;42.048;24.638;2022-09-03T08:46:50;97444.50;;;26.34;80.20
10464;BME280;5279;42.048;24.638;2022-09-03T08:49:22;97431.81;;;26.78;77.95
10464;BME280;5279;42.048;24.638;2022-09-03T08:51:53;97431.25;;;26.76;72.57
10464;BME280;5279;42.048;24.638;2022-09-03T08:54:24;97413.50;;;26.52;70.05
10464;BME280;5279;42.048;24.638;2022-09-03T08:56:53;97415.00;;;26.09;70.79
10464;BME280;5279;42.048;24.638;2022-09-03T08:59:22;97416.00;;;26.37;77.40
10464;BME280;5279;42.048;24.638;2022-09-03T09:01:54;97421.72;;;26.57;73.49
10464;BME280;5279;42.048;24.638;2022-09-03T09:04:34;97427.81;;;26.64;67.18
10464;BME280;5279;42.048;24.638;2022-09-03T09:07:10;97426.72;;;27.03;70.54
10464;BME280;5279;42.048;24.638;2022-09-03T09:09:44;97434.19;;;27.35;65.21
10464;BME280;5279;42.048;24.638;2022-09-03T09:12:20;97428.41;;;27.53;64.45
10464;BME280;5279;42.048;24.638;2022-09-03T09:15:02;97435.44;;;27.49;65.28
10464;BME280;5279;42.048;24.638;2022-09-03T09:17:40;97444.47;;;27.54;62.77
10464;BME280;5279;42.048;24.638;2022-09-03T09:20:16;97427.03;;;27.77;64.20
10464;BME280;5279;42.048;24.638;2022-09-03T09:22:48;97422.03;;;27.96;59.93
10464;BME280;5279;42.048;24.638;2022-09-03T09:25:19;97419.28;;;28.28;58.02
10464;BME280;5279;42.048;24.638;2022-09-03T09:27:50;97429.66;;;29.19;60.71
10464;BME280;5279;42.048;24.638;2022-09-03T09:30:19;97424.97;;;30.32;52.28
10464;BME280;5279;42.048;24.638;2022-09-03T09:32:46;97425.31;;;31.20;46.28
10464;BME280;5279;42.048;24.638;2022-09-03T09:35:13;97428.72;;;31.61;46.53
10464;BME280;5279;42.048;24.638;2022-09-03T09:37:48;97422.09;;;32.69;43.63
10464;BME280;5279;42.048;24.638;2022-09-03T09:40:27;97408.94;;;33.79;40.63
10464;BME280;5279;42.048;24.638;2022-09-03T10:02:25;97408.34;;;37.03;33.47
10464;BME280;5279;42.048;24.638;2022-09-03T10:04:55;97399.63;;;36.26;32.63
10464;BME280;5279;42.048;24.638;2022-09-03T10:07:27;97406.81;;;35.00;34.81
10464;BME280;5279;42.048;24.638;2022-09-03T10:10:01;97405.81;;;35.24;35.72
10464;BME280;5279;42.048;24.638;2022-09-03T10:12:31;97401.41;;;35.86;35.31
10464;BME280;5279;42.048;24.638;2022-09-03T10:15:07;97382.09;;;33.52;38.04
10464;BME280;5279;42.048;24.638;2022-09-03T10:17:45;97392.41;;;34.17;38.71
10464;BME280;5279;42.048;24.638;2022-09-03T10:20:19;97387.41;;;35.46;35.80
10464;BME280;5279;42.048;24.638;2022-09-03T10:22:58;97385.91;;;36.12;32.58
10464;BME280;5279;42.048;24.638;2022-09-03T10:25:29;97395.00;;;35.41;33.41
10464;BME280;5279;42.048;24.638;2022-09-03T10:28:01;97386.22;;;34.98;33.92
10464;BME280;5279;42.048;24.638;2022-09-03T10:30:33;97392.66;;;34.80;33.69
10464;BME280;5279;42.048;24.638;2022-09-03T10:33:15;97384.22;;;35.17;35.78
10464;BME280;5279;42.048;24.638;2022-09-03T10:35:51;97383.59;;;35.20;35.69
10464;BME280;5279;42.048;24.638;2022-09-03T10:38:25;97384.53;;;35.65;35.86
10464;BME280;5279;42.048;24.638;2022-09-03T10:41:01;97385.50;;;36.27;36.29
10464;BME280;5279;42.048;24.638;2022-09-03T10:43:56;97386.63;;;35.32;34.61
10464;BME280;5279;42.048;24.638;2022-09-03T10:46:28;97372.00;;;35.45;35.98
10464;BME280;5279;42.048;24.638;2022-09-03T10:49:18;97374.59;;;35.78;34.07
10464;BME280;5279;42.048;24.638;2022-09-03T10:51:54;97371.84;;;36.22;36.73
10464;BME280;5279;42.048;24.638;2022-09-03T10:54:45;97380.66;;;35.52;35.71
10464;BME280;5279;42.048;24.638;2022-09-03T10:57:25;97379.97;;;35.83;35.14
10464;BME280;5279;42.048;24.638;2022-09-03T11:00:04;97387.66;;;36.92;32.78
10464;BME280;5279;42.048;24.638;2022-09-03T11:02:49;97381.19;;;37.44;34.20
10464;BME280;5279;42.048;24.638;2022-09-03T11:05:28;97381.53;;;37.68;32.39
10464;BME280;5279;42.048;24.638;2022-09-03T11:08:00;97400.94;;;38.03;30.94
10464;BME280;5279;42.048;24.638;2022-09-03T11:10:32;97398.75;;;38.34;32.37
10464;BME280;5279;42.048;24.638;2022-09-03T11:13:05;97392.66;;;38.75;30.93
10464;BME280;5279;42.048;24.638;2022-09-03T11:15:37;97404.06;;;39.49;29.66
10464;BME280;5279;42.048;24.638;2022-09-03T11:18:13;97399.78;;;38.04;30.27
10464;BME280;5279;42.048;24.638;2022-09-03T11:20:44;97390.78;;;36.15;33.25
10464;BME280;5279;42.048;24.638;2022-09-03T11:23:12;97400.44;;;35.54;35.56
10464;BME280;5279;42.048;24.638;2022-09-03T11:25:42;97400.31;;;36.53;32.19
10464;BME280;5279;42.048;24.638;2022-09-03T11:28:22;97382.94;;;36.53;30.96
10464;BME280;5279;42.048;24.638;2022-09-03T11:31:12;97377.50;;;37.18;33.24
10464;BME280;5279;42.048;24.638;2022-09-03T11:33:46;97386.09;;;37.64;30.72
10464;BME280;5279;42.048;24.638;2022-09-03T11:36:23;97387.25;;;37.63;30.64
10464;BME280;5279;42.048;24.638;2022-09-03T11:38:52;97397.06;;;37.30;30.57
10464;BME280;5279;42.048;24.638;2022-09-03T11:41:24;97375.84;;;37.00;30.93
10464;BME280;5279;42.048;24.638;2022-09-03T11:43:52;97390.81;;;36.46;32.81
10464;BME280;5279;42.048;24.638;2022-09-03T11:46:29;97381.38;;;36.38;33.83
10464;BME280;5279;42.048;24.638;2022-09-03T11:49:09;97382.19;;;37.00;31.71
10464;BME280;5279;42.048;24.638;2022-09-03T11:51:39;97375.41;;;36.76;33.59
10464;BME280;5279;42.048;24.638;2022-09-03T11:54:23;97374.28;;;37.24;30.62
10464;BME280;5279;42.048;24.638;2022-09-03T11:57:03;97383.19;;;37.13;32.22
10464;BME280;5279;42.048;24.638;2022-09-03T11:59:31;97372.91;;;36.57;32.36
10464;BME280;5279;42.048;24.638;2022-09-03T12:02:01;97376.34;;;37.75;31.00
10464;BME280;5279;42.048;24.638;2022-09-03T12:04:34;97381.88;;;38.10;31.51
10464;BME280;5279;42.048;24.638;2022-09-03T12:07:18;97376.91;;;39.34;29.10
10464;BME280;5279;42.048;24.638;2022-09-03T12:09:56;97374.91;;;38.67;28.63
10464;BME280;5279;42.048;24.638;2022-09-03T12:12:42;97369.63;;;38.19;30.23
10464;BME280;5279;42.048;24.638;2022-09-03T12:15:19;97369.06;;;36.44;31.40
10464;BME280;5279;42.048;24.638;2022-09-03T12:17:53;97382.75;;;35.33;32.78
10464;BME280;5279;42.048;24.638;2022-09-03T12:20:34;97382.75;;;35.06;34.08
10464;BME280;5279;42.048;24.638;2022-09-03T12:23:03;97376.78;;;34.58;35.29
10464;BME280;5279;42.048;24.638;2022-09-03T12:25:31;97370.03;;;34.04;37.56
10464;BME280;5279;42.048;24.638;2022-09-03T12:28:00;97371.91;;;35.50;35.63
10464;BME280;5279;42.048;24.638;2022-09-03T12:30:28;97368.16;;;36.27;32.91
10464;BME280;5279;42.048;24.638;2022-09-03T12:33:03;97365.06;;;36.28;32.23
10464;BME280;5279;42.048;24.638;2022-09-03T12:35:30;97366.25;;;37.62;31.62
10464;BME280;5279;42.048;24.638;2022-09-03T12:37:57;97365.41;;;36.97;30.66
10464;BME280;5279;42.048;24.638;2022-09-03T12:40:27;97354.84;;;36.90;31.11
10464;BME280;5279;42.048;24.638;2022-09-03T12:43:10;97362.53;;;37.93;30.62
10464;BME280;5279;42.048;24.638;2022-09-03T12:45:42;97354.69;;;37.60;30.85
10464;BME280;5279;42.048;24.638;2022-09-03T12:48:12;97355.50;;;37.69;29.85
10464;BME280;5279;42.048;24.638;2022-09-03T12:50:41;97352.88;;;38.16;28.45
10464;BME280;5279;42.048;24.638;2022-09-03T12:53:09;97353.97;;;37.29;29.32
10464;BME280;5279;42.048;24.638;2022-09-03T12:55:42;97348.09;;;36.65;29.91
10464;BME280;5279;42.048;24.638;2022-09-03T12:58:12;97347.72;;;36.58;31.77
10464;BME280;5279;42.048;24.638;2022-09-03T13:00:44;97346.94;;;35.91;31.07
10464;BME280;5279;42.048;24.638;2022-09-03T13:03:17;97359.09;;;35.32;31.97
10464;BME280;5279;42.048;24.638;2022-09-03T13:05:49;97340.78;;;35.36;32.70
10464;BME280;5279;42.048;24.638;2022-09-03T13:08:21;97346.19;;;35.41;32.88
10464;BME280;5279;42.048;24.638;2022-09-03T13:10:53;97352.16;;;35.21;33.80
10464;BME280;5279;42.048;24.638;2022-09-03T13:13:24;97334.75;;;34.25;34.96
10464;BME280;5279;42.048;24.638;2022-09-03T13:16:13;97322.91;;;34.11;35.42
10464;BME280;5279;42.048;24.638;2022-09-03T13:18:53;97334.72;;;34.85;36.53
10464;BME280;5279;42.048;24.638;2022-09-03T13:21:31;97346.84;;;34.97;37.45
10464;BME280;5279;42.048;24.638;2022-09-03T13:24:16;97340.13;;;34.76;36.09
10464;BME280;5279;42.048;24.638;2022-09-03T13:26:54;97340.28;;;34.06;36.88
10464;BME280;5279;42.048;24.638;2022-09-03T13:29:36;97339.91;;;32.54;39.85
10464;BME280;5279;42.048;24.638;2022-09-03T13:32:11;97340.97;;;31.27;40.28
10464;BME280;5279;42.048;24.638;2022-09-03T13:34:47;97345.63;;;30.53;45.33
10464;BME280;5279;42.048;24.638;2022-09-03T13:37:23;97345.41;;;29.73;45.42
10464;BME280;5279;42.048;24.638;2022-09-03T13:39:54;97344.59;;;29.58;46.89